Dedham, Massachusetts
Current Conditions -  °F | °C
As of 2:53 PM on Saturday 25 Oct 2014 (Local Time) from KOWD Reporting Station
Clear Clear  
Wind Chill: 64°   Ceiling: Unl
Heat Index: 64°   Visibility: 10mi
Dew Point: 38°   Wind: 10mph
Humidity: 38%   Direction: 250°WSW
Pressure: 29.62"   Gusts: NA
Location:  42.25°N, 71.17°W
Report Text: KOWD 251853Z 25009KT 10SM CLR 18/03 A2962 RMK AO2 SLP029 T01780033
Loading
Personal Weather Stations






























Interactive Weather Map
Tropical Storm Tracking
New forecast layout! Learn more

10-Day Weather Forecast

Advertisements
Track Severe Weather on mobile